sensor_id;sensor_type;location;lat;lon;timestamp;temperature;humidity
45066;DHT22;30830;53.704;10.004;2023-10-13T00:00:56;11.00;99.90
45066;DHT22;30830;53.704;10.004;2023-10-13T00:03:23;11.00;99.90
45066;DHT22;30830;53.704;10.004;2023-10-13T00:05:50;11.00;99.90
45066;DHT22;30830;53.704;10.004;2023-10-13T00:08:18;11.00;99.90
45066;DHT22;30830;53.704;10.004;2023-10-13T00:10:46;11.00;99.90
45066;DHT22;30830;53.704;10.004;2023-10-13T00:13:13;11.10;99.90
45066;DHT22;30830;53.704;10.004;2023-10-13T00:15:42;11.10;99.90
45066;DHT22;30830;53.704;10.004;2023-10-13T00:18:43;11.10;99.90
45066;DHT22;30830;53.704;10.004;2023-10-13T00:21:10;11.10;99.90
45066;DHT22;30830;53.704;10.004;2023-10-13T00:23:40;11.10;99.90
45066;DHT22;30830;53.704;10.004;2023-10-13T00:26:18;11.20;99.90
45066;DHT22;30830;53.704;10.004;2023-10-13T00:28:44;11.20;99.90
45066;DHT22;30830;53.704;10.004;2023-10-13T00:31:13;11.20;99.90
45066;DHT22;30830;53.704;10.004;2023-10-13T00:33:40;11.20;99.90
45066;DHT22;30830;53.704;10.004;2023-10-13T00:36:07;11.20;99.90
45066;DHT22;30830;53.704;10.004;2023-10-13T00:38:34;11.20;99.90
45066;DHT22;30830;53.704;10.004;2023-10-13T00:41:03;11.20;99.90
45066;DHT22;30830;53.704;10.004;2023-10-13T00:43:45;11.30;99.90
45066;DHT22;30830;53.704;10.004;2023-10-13T00:46:11;11.30;99.90
45066;DHT22;30830;53.704;10.004;2023-10-13T00:48:41;11.30;99.90
45066;DHT22;30830;53.704;10.004;2023-10-13T00:51:10;11.30;99.90
45066;DHT22;30830;53.704;10.004;2023-10-13T00:53:55;11.30;99.90
45066;DHT22;30830;53.704;10.004;2023-10-13T00:56:22;11.30;99.90
45066;DHT22;30830;53.704;10.004;2023-10-13T00:58:53;11.30;99.90
45066;DHT22;30830;53.704;10.004;2023-10-13T01:01:20;11.40;99.90
45066;DHT22;30830;53.704;10.004;2023-10-13T01:03:55;11.40;99.90
45066;DHT22;30830;53.704;10.004;2023-10-13T01:06:30;11.40;99.90
45066;DHT22;30830;53.704;10.004;2023-10-13T01:09:01;11.40;99.90
45066;DHT22;30830;53.704;10.004;2023-10-13T01:11:42;11.40;99.90
45066;DHT22;30830;53.704;10.004;2023-10-13T01:14:12;11.40;99.90
45066;DHT22;30830;53.704;10.004;2023-10-13T01:16:40;11.50;99.90
45066;DHT22;30830;53.704;10.004;2023-10-13T01:19:15;11.50;99.90
45066;DHT22;30830;53.704;10.004;2023-10-13T01:21:47;11.50;99.90
45066;DHT22;30830;53.704;10.004;2023-10-13T01:24:14;11.50;99.90
45066;DHT22;30830;53.704;10.004;2023-10-13T01:26:44;11.60;99.90
45066;DHT22;30830;53.704;10.004;2023-10-13T01:29:10;11.60;99.90
45066;DHT22;30830;53.704;10.004;2023-10-13T01:31:44;11.60;99.90
45066;DHT22;30830;53.704;10.004;2023-10-13T01:34:17;11.70;99.90
45066;DHT22;30830;53.704;10.004;2023-10-13T01:36:55;11.70;99.90
45066;DHT22;30830;53.704;10.004;2023-10-13T01:39:22;11.70;99.90
45066;DHT22;30830;53.704;10.004;2023-10-13T01:41:55;11.70;99.90
45066;DHT22;30830;53.704;10.004;2023-10-13T01:44:24;11.70;99.90
45066;DHT22;30830;53.704;10.004;2023-10-13T01:46:53;11.70;99.90
45066;DHT22;30830;53.704;10.004;2023-10-13T01:49:19;11.80;99.90
45066;DHT22;30830;53.704;10.004;2023-10-13T01:51:47;11.80;99.90
45066;DHT22;30830;53.704;10.004;2023-10-13T01:54:13;11.80;99.90
45066;DHT22;30830;53.704;10.004;2023-10-13T01:56:41;11.80;99.90
45066;DHT22;30830;53.704;10.004;2023-10-13T01:59:12;11.80;99.90
45066;DHT22;30830;53.704;10.004;2023-10-13T02:01:38;11.90;99.90
45066;DHT22;30830;53.704;10.004;2023-10-13T02:04:05;11.90;99.90
45066;DHT22;30830;53.704;10.004;2023-10-13T02:06:33;11.90;99.90
45066;DHT22;30830;53.704;10.004;2023-10-13T02:09:00;11.90;99.90
45066;DHT22;30830;53.704;10.004;2023-10-13T02:11:35;12.00;99.90
45066;DHT22;30830;53.704;10.004;2023-10-13T02:14:02;12.00;99.90
45066;DHT22;30830;53.704;10.004;2023-10-13T02:16:28;12.00;99.90
45066;DHT22;30830;53.704;10.004;2023-10-13T02:18:56;12.00;99.90
45066;DHT22;30830;53.704;10.004;2023-10-13T02:21:23;12.10;99.90
45066;DHT22;30830;53.704;10.004;2023-10-13T02:23:59;12.10;99.90
45066;DHT22;30830;53.704;10.004;2023-10-13T02:26:31;12.10;99.90
45066;DHT22;30830;53.704;10.004;2023-10-13T02:29:01;12.20;99.90
45066;DHT22;30830;53.704;10.004;2023-10-13T02:31:35;12.20;99.90
45066;DHT22;30830;53.704;10.004;2023-10-13T02:34:01;12.20;99.90
45066;DHT22;30830;53.704;10.004;2023-10-13T02:36:31;12.30;99.90
45066;DHT22;30830;53.704;10.004;2023-10-13T02:39:04;12.30;99.90
45066;DHT22;30830;53.704;10.004;2023-10-13T02:41:33;12.30;99.90
45066;DHT22;30830;53.704;10.004;2023-10-13T02:44:03;12.30;99.90
45066;DHT22;30830;53.704;10.004;2023-10-13T02:46:33;12.30;99.90
45066;DHT22;30830;53.704;10.004;2023-10-13T02:49:05;12.30;99.90
45066;DHT22;30830;53.704;10.004;2023-10-13T02:51:40;12.30;99.90
45066;DHT22;30830;53.704;10.004;2023-10-13T02:54:08;12.40;99.90
45066;DHT22;30830;53.704;10.004;2023-10-13T02:56:38;12.30;99.90
45066;DHT22;30830;53.704;10.004;2023-10-13T02:59:30;12.30;99.90
45066;DHT22;30830;53.704;10.004;2023-10-13T03:02:21;12.40;99.90
45066;DHT22;30830;53.704;10.004;2023-10-13T03:04:57;12.40;99.90
45066;DHT22;30830;53.704;10.004;2023-10-13T03:07:29;12.40;99.90
45066;DHT22;30830;53.704;10.004;2023-10-13T03:09:58;12.40;99.90
45066;DHT22;30830;53.704;10.004;2023-10-13T03:12:26;12.40;99.90
45066;DHT22;30830;53.704;10.004;2023-10-13T03:14:53;12.50;99.90
45066;DHT22;30830;53.704;10.004;2023-10-13T03:17:23;12.50;99.90
45066;DHT22;30830;53.704;10.004;2023-10-13T03:19:59;12.50;99.90
45066;DHT22;30830;53.704;10.004;2023-10-13T03:22:25;12.50;99.90
45066;DHT22;30830;53.704;10.004;2023-10-13T03:24:58;12.50;99.90
45066;DHT22;30830;53.704;10.004;2023-10-13T03:27:35;12.60;99.90
45066;DHT22;30830;53.704;10.004;2023-10-13T03:30:16;12.60;99.90
45066;DHT22;30830;53.704;10.004;2023-10-13T03:32:42;12.60;99.90
45066;DHT22;30830;53.704;10.004;2023-10-13T03:35:19;12.60;99.90
45066;DHT22;30830;53.704;10.004;2023-10-13T03:37:54;12.60;99.90
45066;DHT22;30830;53.704;10.004;2023-10-13T03:40:21;12.60;99.90
45066;DHT22;30830;53.704;10.004;2023-10-13T03:42:52;12.70;99.90
45066;DHT22;30830;53.704;10.004;2023-10-13T03:45:40;12.70;99.90
45066;DHT22;30830;53.704;10.004;2023-10-13T03:48:12;12.70;99.90
45066;DHT22;30830;53.704;10.004;2023-10-13T03:50:51;12.70;99.90
45066;DHT22;30830;53.704;10.004;2023-10-13T03:53:27;12.70;99.90
45066;DHT22;30830;53.704;10.004;2023-10-13T03:55:59;12.80;99.90
45066;DHT22;30830;53.704;10.004;2023-10-13T03:58:38;12.80;99.90
45066;DHT22;30830;53.704;10.004;2023-10-13T04:01:13;12.80;99.90
45066;DHT22;30830;53.704;10.004;2023-10-13T04:03:42;12.90;99.90
45066;DHT22;30830;53.704;10.004;2023-10-13T04:06:27;12.90;99.90
45066;DHT22;30830;53.704;10.004;2023-10-13T04:09:23;12.90;99.90
45066;DHT22;30830;53.704;10.004;2023-10-13T04:12:04;12.90;99.90
45066;DHT22;30830;53.704;10.004;2023-10-13T04:14:41;12.90;99.90
45066;DHT22;30830;53.704;10.004;2023-10-13T04:17:25;12.90;99.90
45066;DHT22;30830;53.704;10.004;2023-10-13T04:19:56;13.00;99.90
45066;DHT22;30830;53.704;10.004;2023-10-13T04:22:31;13.00;99.90
45066;DHT22;30830;53.704;10.004;2023-10-13T04:25:21;13.10;99.90
45066;DHT22;30830;53.704;10.004;2023-10-13T04:28:08;13.10;99.90
45066;DHT22;30830;53.704;10.004;2023-10-13T04:30:50;13.10;99.90
45066;DHT22;30830;53.704;10.004;2023-10-13T04:33:32;13.10;99.90
45066;DHT22;30830;53.704;10.004;2023-10-13T04:36:02;13.20;99.90
45066;DHT22;30830;53.704;10.004;2023-10-13T04:38:48;13.20;99.90
45066;DHT22;30830;53.704;10.004;2023-10-13T04:41:35;13.20;99.90
45066;DHT22;30830;53.704;10.004;2023-10-13T04:44:14;13.20;99.90
45066;DHT22;30830;53.704;10.004;2023-10-13T04:46:56;13.20;99.90
45066;DHT22;30830;53.704;10.004;2023-10-13T04:49:26;13.30;99.90
45066;DHT22;30830;53.704;10.004;2023-10-13T04:51:58;13.20;99.90
45066;DHT22;30830;53.704;10.004;2023-10-13T04:54:25;13.30;99.90
45066;DHT22;30830;53.704;10.004;2023-10-13T04:56:52;13.30;99.90
45066;DHT22;30830;53.704;10.004;2023-10-13T04:59:36;13.30;99.90
45066;DHT22;30830;53.704;10.004;2023-10-13T05:02:03;13.40;99.90
45066;DHT22;30830;53.704;10.004;2023-10-13T05:05:08;13.40;99.90
45066;DHT22;30830;53.704;10.004;2023-10-13T05:07:36;13.40;99.90
45066;DHT22;30830;53.704;10.004;2023-10-13T05:10:21;13.40;99.90
45066;DHT22;30830;53.704;10.004;2023-10-13T05:13:21;13.50;99.90
45066;DHT22;30830;53.704;10.004;2023-10-13T05:16:06;13.50;99.90
45066;DHT22;30830;53.704;10.004;2023-10-13T05:18:50;13.50;99.90
45066;DHT22;30830;53.704;10.004;2023-10-13T05:21:34;13.60;99.90
45066;DHT22;30830;53.704;10.004;2023-10-13T05:24:18;13.60;99.90
45066;DHT22;30830;53.704;10.004;2023-10-13T05:27:02;13.60;99.90
45066;DHT22;30830;53.704;10.004;2023-10-13T05:29:47;13.60;99.90
45066;DHT22;30830;53.704;10.004;2023-10-13T05:32:32;13.70;99.90
45066;DHT22;30830;53.704;10.004;2023-10-13T05:35:16;13.70;99.90
45066;DHT22;30830;53.704;10.004;2023-10-13T05:38:01;13.70;99.90
45066;DHT22;30830;53.704;10.004;2023-10-13T05:41:11;13.80;99.90
45066;DHT22;30830;53.704;10.004;2023-10-13T05:43:56;13.80;99.90
45066;DHT22;30830;53.704;10.004;2023-10-13T05:46:40;13.80;99.90
45066;DHT22;30830;53.704;10.004;2023-10-13T05:49:28;13.90;99.90
45066;DHT22;30830;53.704;10.004;2023-10-13T05:52:16;13.90;99.90
45066;DHT22;30830;53.704;10.004;2023-10-13T05:55:00;14.00;99.90
45066;DHT22;30830;53.704;10.004;2023-10-13T05:57:44;14.10;99.90
45066;DHT22;30830;53.704;10.004;2023-10-13T06:00:28;14.10;99.90
45066;DHT22;30830;53.704;10.004;2023-10-13T06:03:12;14.10;99.90
45066;DHT22;30830;53.704;10.004;2023-10-13T06:05:56;14.20;99.90
45066;DHT22;30830;53.704;10.004;2023-10-13T06:08:40;14.30;99.90
45066;DHT22;30830;53.704;10.004;2023-10-13T06:11:26;14.30;99.90
45066;DHT22;30830;53.704;10.004;2023-10-13T06:14:18;14.40;99.90
45066;DHT22;30830;53.704;10.004;2023-10-13T06:17:02;14.40;99.90
45066;DHT22;30830;53.704;10.004;2023-10-13T06:19:46;14.50;99.90
45066;DHT22;30830;53.704;10.004;2023-10-13T06:22:31;14.50;99.90
45066;DHT22;30830;53.704;10.004;2023-10-13T06:25:15;14.60;99.90
45066;DHT22;30830;53.704;10.004;2023-10-13T06:27:59;14.60;99.90
45066;DHT22;30830;53.704;10.004;2023-10-13T06:30:58;14.70;99.90
45066;DHT22;30830;53.704;10.004;2023-10-13T06:33:24;14.70;99.90
45066;DHT22;30830;53.704;10.004;2023-10-13T06:35:56;14.80;99.90
45066;DHT22;30830;53.704;10.004;2023-10-13T06:38:22;14.80;99.90
45066;DHT22;30830;53.704;10.004;2023-10-13T06:40:48;14.90;99.90
45066;DHT22;30830;53.704;10.004;2023-10-13T06:43:16;14.90;99.90
45066;DHT22;30830;53.704;10.004;2023-10-13T06:45:44;14.90;99.90
45066;DHT22;30830;53.704;10.004;2023-10-13T06:48:25;15.00;99.90
45066;DHT22;30830;53.704;10.004;2023-10-13T06:50:52;15.00;99.90
45066;DHT22;30830;53.704;10.004;2023-10-13T06:53:20;15.00;99.90
45066;DHT22;30830;53.704;10.004;2023-10-13T06:55:45;15.00;99.90
45066;DHT22;30830;53.704;10.004;2023-10-13T06:58:13;15.00;99.90
45066;DHT22;30830;53.704;10.004;2023-10-13T07:00:43;15.00;99.90
45066;DHT22;30830;53.704;10.004;2023-10-13T07:03:19;15.10;99.90
45066;DHT22;30830;53.704;10.004;2023-10-13T07:05:45;15.10;99.90
45066;DHT22;30830;53.704;10.004;2023-10-13T07:08:13;15.10;99.90
45066;DHT22;30830;53.704;10.004;2023-10-13T07:10:55;15.20;99.90
45066;DHT22;30830;53.704;10.004;2023-10-13T07:13:28;15.10;99.90
45066;DHT22;30830;53.704;10.004;2023-10-13T07:15:54;15.20;99.90
45066;DHT22;30830;53.704;10.004;2023-10-13T07:18:25;15.20;99.90
45066;DHT22;30830;53.704;10.004;2023-10-13T07:20:51;15.20;99.90
45066;DHT22;30830;53.704;10.004;2023-10-13T07:23:17;15.20;99.90
45066;DHT22;30830;53.704;10.004;2023-10-13T07:25:55;15.20;99.90
45066;DHT22;30830;53.704;10.004;2023-10-13T07:28:23;15.30;99.90
45066;DHT22;30830;53.704;10.004;2023-10-13T07:30:48;15.30;99.90
45066;DHT22;30830;53.704;10.004;2023-10-13T07:33:20;15.30;99.90
45066;DHT22;30830;53.704;10.004;2023-10-13T07:35:46;15.40;99.90
45066;DHT22;30830;53.704;10.004;2023-10-13T07:38:16;15.40;99.90
45066;DHT22;30830;53.704;10.004;2023-10-13T07:40:42;15.40;99.90
45066;DHT22;30830;53.704;10.004;2023-10-13T07:43:16;15.40;99.90
45066;DHT22;30830;53.704;10.004;2023-10-13T07:45:47;15.40;99.90
45066;DHT22;30830;53.704;10.004;2023-10-13T07:48:23;15.40;99.90
45066;DHT22;30830;53.704;10.004;2023-10-13T07:51:00;15.40;99.90
45066;DHT22;30830;53.704;10.004;2023-10-13T07:53:26;15.40;99.90
45066;DHT22;30830;53.704;10.004;2023-10-13T07:55:55;15.50;99.90
45066;DHT22;30830;53.704;10.004;2023-10-13T07:58:22;15.50;99.90
45066;DHT22;30830;53.704;10.004;2023-10-13T08:00:50;15.50;99.90
45066;DHT22;30830;53.704;10.004;2023-10-13T08:03:25;15.50;99.90
45066;DHT22;30830;53.704;10.004;2023-10-13T08:06:00;15.50;99.90
45066;DHT22;30830;53.704;10.004;2023-10-13T08:08:45;15.50;99.90
45066;DHT22;30830;53.704;10.004;2023-10-13T08:11:16;15.50;99.90
45066;DHT22;30830;53.704;10.004;2023-10-13T08:13:48;15.50;99.90
45066;DHT22;30830;53.704;10.004;2023-10-13T08:16:19;15.60;99.90
45066;DHT22;30830;53.704;10.004;2023-10-13T08:18:52;15.60;99.90
45066;DHT22;30830;53.704;10.004;2023-10-13T08:21:19;15.60;99.90
45066;DHT22;30830;53.704;10.004;2023-10-13T08:23:49;15.60;99.90
45066;DHT22;30830;53.704;10.004;2023-10-13T08:26:28;15.60;99.90
45066;DHT22;30830;53.704;10.004;2023-10-13T08:29:16;15.60;99.90
45066;DHT22;30830;53.704;10.004;2023-10-13T08:31:49;15.60;99.90
45066;DHT22;30830;53.704;10.004;2023-10-13T08:34:34;15.60;99.90
45066;DHT22;30830;53.704;10.004;2023-10-13T08:37:09;15.70;99.90
45066;DHT22;30830;53.704;10.004;2023-10-13T08:39:48;15.60;99.90
45066;DHT22;30830;53.704;10.004;2023-10-13T08:42:33;15.60;99.90
45066;DHT22;30830;53.704;10.004;2023-10-13T08:45:12;15.60;99.90
45066;DHT22;30830;53.704;10.004;2023-10-13T08:47:50;15.60;99.90
45066;DHT22;30830;53.704;10.004;2023-10-13T08:50:35;15.60;99.90
45066;DHT22;30830;53.704;10.004;2023-10-13T08:53:23;15.70;99.90
45066;DHT22;30830;53.704;10.004;2023-10-13T08:56:06;15.60;99.90
45066;DHT22;30830;53.704;10.004;2023-10-13T08:58:34;15.60;99.90
45066;DHT22;30830;53.704;10.004;2023-10-13T09:01:36;15.60;99.90
45066;DHT22;30830;53.704;10.004;2023-10-13T09:04:18;15.60;99.90
45066;DHT22;30830;53.704;10.004;2023-10-13T09:07:02;15.60;99.90
45066;DHT22;30830;53.704;10.004;2023-10-13T09:09:52;15.70;99.90
45066;DHT22;30830;53.704;10.004;2023-10-13T09:14:55;15.60;99.90
45066;DHT22;30830;53.704;10.004;2023-10-13T09:17:25;15.60;99.90
45066;DHT22;30830;53.704;10.004;2023-10-13T09:20:01;15.70;99.90
45066;DHT22;30830;53.704;10.004;2023-10-13T09:22:45;15.70;99.90
45066;DHT22;30830;53.704;10.004;2023-10-13T09:25:22;15.70;99.90
45066;DHT22;30830;53.704;10.004;2023-10-13T09:27:49;15.80;99.90
45066;DHT22;30830;53.704;10.004;2023-10-13T09:30:18;15.80;99.90
45066;DHT22;30830;53.704;10.004;2023-10-13T09:33:02;15.90;99.90
45066;DHT22;30830;53.704;10.004;2023-10-13T09:35:30;15.90;99.90
45066;DHT22;30830;53.704;10.004;2023-10-13T09:38:00;16.00;99.90
45066;DHT22;30830;53.704;10.004;2023-10-13T09:40:28;16.00;99.90
45066;DHT22;30830;53.704;10.004;2023-10-13T09:43:00;16.00;99.90
45066;DHT22;30830;53.704;10.004;2023-10-13T09:45:31;16.10;99.90
45066;DHT22;30830;53.704;10.004;2023-10-13T09:48:12;16.20;99.90
45066;DHT22;30830;53.704;10.004;2023-10-13T09:50:48;16.20;99.90
45066;DHT22;30830;53.704;10.004;2023-10-13T09:53:15;16.30;99.90
45066;DHT22;30830;53.704;10.004;2023-10-13T09:56:06;16.30;99.90
45066;DHT22;30830;53.704;10.004;2023-10-13T09:58:51;16.30;99.90
45066;DHT22;30830;53.704;10.004;2023-10-13T10:01:26;16.30;99.90
45066;DHT22;30830;53.704;10.004;2023-10-13T10:04:11;16.30;99.90
45066;DHT22;30830;53.704;10.004;2023-10-13T10:06:58;16.30;99.90
45066;DHT22;30830;53.704;10.004;2023-10-13T10:09:29;16.30;99.90
45066;DHT22;30830;53.704;10.004;2023-10-13T10:15:06;16.30;99.90
45066;DHT22;30830;53.704;10.004;2023-10-13T10:17:42;16.30;99.90
45066;DHT22;30830;53.704;10.004;2023-10-13T10:20:09;16.30;99.90
45066;DHT22;30830;53.704;10.004;2023-10-13T10:22:56;16.30;99.90
45066;DHT22;30830;53.704;10.004;2023-10-13T10:25:29;16.20;99.90
45066;DHT22;30830;53.704;10.004;2023-10-13T10:28:01;16.20;99.90
45066;DHT22;30830;53.704;10.004;2023-10-13T10:30:31;16.20;99.90
45066;DHT22;30830;53.704;10.004;2023-10-13T10:32:59;16.20;99.90
45066;DHT22;30830;53.704;10.004;2023-10-13T10:35:29;16.30;99.90
45066;DHT22;30830;53.704;10.004;2023-10-13T10:38:14;16.30;99.90
45066;DHT22;30830;53.704;10.004;2023-10-13T10:43:28;16.40;99.90
45066;DHT22;30830;53.704;10.004;2023-10-13T10:45:56;16.50;99.90
45066;DHT22;30830;53.704;10.004;2023-10-13T10:48:28;16.50;99.90
45066;DHT22;30830;53.704;10.004;2023-10-13T10:51:03;16.50;99.90
45066;DHT22;30830;53.704;10.004;2023-10-13T10:53:34;16.50;99.90
45066;DHT22;30830;53.704;10.004;2023-10-13T10:56:13;16.50;99.90
45066;DHT22;30830;53.704;10.004;2023-10-13T10:58:55;16.60;99.90
45066;DHT22;30830;53.704;10.004;2023-10-13T11:01:26;16.60;99.90
45066;DHT22;30830;53.704;10.004;2023-10-13T11:04:02;16.70;99.90
45066;DHT22;30830;53.704;10.004;2023-10-13T11:06:46;16.70;99.90
45066;DHT22;30830;53.704;10.004;2023-10-13T11:09:12;16.80;99.90
45066;DHT22;30830;53.704;10.004;2023-10-13T11:14:40;16.90;99.90
45066;DHT22;30830;53.704;10.004;2023-10-13T11:17:06;16.90;99.90
45066;DHT22;30830;53.704;10.004;2023-10-13T11:19:44;17.00;99.90
45066;DHT22;30830;53.704;10.004;2023-10-13T11:22:14;17.00;99.90
45066;DHT22;30830;53.704;10.004;2023-10-13T11:25:00;17.10;99.90
45066;DHT22;30830;53.704;10.004;2023-10-13T11:27:32;17.10;99.90
45066;DHT22;30830;53.704;10.004;2023-10-13T11:30:16;17.10;99.90
45066;DHT22;30830;53.704;10.004;2023-10-13T11:35:24;17.30;99.90
45066;DHT22;30830;53.704;10.004;2023-10-13T11:37:51;17.30;99.90
45066;DHT22;30830;53.704;10.004;2023-10-13T11:40:29;17.40;99.90
45066;DHT22;30830;53.704;10.004;2023-10-13T11:43:25;17.40;99.90
45066;DHT22;30830;53.704;10.004;2023-10-13T11:45:51;17.40;99.90
45066;DHT22;30830;53.704;10.004;2023-10-13T11:48:39;17.50;99.90
45066;DHT22;30830;53.704;10.004;2023-10-13T11:51:14;17.60;99.90
45066;DHT22;30830;53.704;10.004;2023-10-13T11:53:45;17.60;99.90
45066;DHT22;30830;53.704;10.004;2023-10-13T11:56:17;17.80;99.90
45066;DHT22;30830;53.704;10.004;2023-10-13T11:58:46;17.90;99.90
45066;DHT22;30830;53.704;10.004;2023-10-13T12:01:12;17.90;99.90
45066;DHT22;30830;53.704;10.004;2023-10-13T12:03:41;17.90;99.90
45066;DHT22;30830;53.704;10.004;2023-10-13T12:06:25;18.00;99.90
45066;DHT22;30830;53.704;10.004;2023-10-13T12:09:00;18.00;99.90
45066;DHT22;30830;53.704;10.004;2023-10-13T12:11:48;18.10;99.90
45066;DHT22;30830;53.704;10.004;2023-10-13T12:14:16;18.10;99.90
45066;DHT22;30830;53.704;10.004;2023-10-13T12:16:46;18.20;99.90
45066;DHT22;30830;53.704;10.004;2023-10-13T12:19:20;18.20;99.90
45066;DHT22;30830;53.704;10.004;2023-10-13T12:21:58;18.30;99.90
45066;DHT22;30830;53.704;10.004;2023-10-13T12:24:29;18.30;99.90
45066;DHT22;30830;53.704;10.004;2023-10-13T12:27:04;18.40;99.90
45066;DHT22;30830;53.704;10.004;2023-10-13T12:29:49;18.40;99.90
45066;DHT22;30830;53.704;10.004;2023-10-13T12:32:15;18.40;99.90
45066;DHT22;30830;53.704;10.004;2023-10-13T12:34:46;18.40;99.90
45066;DHT22;30830;53.704;10.004;2023-10-13T12:37:32;18.40;99.90
45066;DHT22;30830;53.704;10.004;2023-10-13T12:40:08;18.40;99.90
45066;DHT22;30830;53.704;10.004;2023-10-13T12:42:53;18.40;99.90
45066;DHT22;30830;53.704;10.004;2023-10-13T12:45:41;18.40;99.90
45066;DHT22;30830;53.704;10.004;2023-10-13T12:48:25;18.40;99.90
45066;DHT22;30830;53.704;10.004;2023-10-13T12:51:09;18.40;99.90
45066;DHT22;30830;53.704;10.004;2023-10-13T12:54:06;18.40;99.90
45066;DHT22;30830;53.704;10.004;2023-10-13T12:56:45;18.50;99.90
45066;DHT22;30830;53.704;10.004;2023-10-13T12:59:11;18.50;99.90
45066;DHT22;30830;53.704;10.004;2023-10-13T13:01:39;18.50;99.90
45066;DHT22;30830;53.704;10.004;2023-10-13T13:04:09;18.60;99.90
45066;DHT22;30830;53.704;10.004;2023-10-13T13:06:42;18.60;99.90
45066;DHT22;30830;53.704;10.004;2023-10-13T13:09:07;18.60;99.90
45066;DHT22;30830;53.704;10.004;2023-10-13T13:11:36;18.60;99.90
45066;DHT22;30830;53.704;10.004;2023-10-13T13:14:07;18.60;99.90
45066;DHT22;30830;53.704;10.004;2023-10-13T13:16:33;18.60;99.90
45066;DHT22;30830;53.704;10.004;2023-10-13T13:18:59;18.70;99.90
45066;DHT22;30830;53.704;10.004;2023-10-13T13:21:28;18.80;99.90
45066;DHT22;30830;53.704;10.004;2023-10-13T13:23:54;18.80;99.90
45066;DHT22;30830;53.704;10.004;2023-10-13T13:26:23;18.80;99.90
45066;DHT22;30830;53.704;10.004;2023-10-13T13:28:49;18.80;99.90
45066;DHT22;30830;53.704;10.004;2023-10-13T13:31:21;18.80;99.90
45066;DHT22;30830;53.704;10.004;2023-10-13T13:33:55;18.80;99.90
45066;DHT22;30830;53.704;10.004;2023-10-13T13:36:21;18.80;99.90
45066;DHT22;30830;53.704;10.004;2023-10-13T13:38:47;18.80;99.90
45066;DHT22;30830;53.704;10.004;2023-10-13T13:41:20;18.90;99.90
45066;DHT22;30830;53.704;10.004;2023-10-13T13:43:47;18.90;99.90
45066;DHT22;30830;53.704;10.004;2023-10-13T13:46:20;18.90;99.90
45066;DHT22;30830;53.704;10.004;2023-10-13T13:48:51;18.90;99.90
45066;DHT22;30830;53.704;10.004;2023-10-13T13:51:23;18.90;99.90
45066;DHT22;30830;53.704;10.004;2023-10-13T13:53:54;18.90;99.90
45066;DHT22;30830;53.704;10.004;2023-10-13T13:56:20;18.90;99.90
45066;DHT22;30830;53.704;10.004;2023-10-13T13:58:46;18.90;99.90
45066;DHT22;30830;53.704;10.004;2023-10-13T14:01:12;18.90;99.90
45066;DHT22;30830;53.704;10.004;2023-10-13T14:03:48;18.90;99.90
45066;DHT22;30830;53.704;10.004;2023-10-13T14:06:20;18.90;99.90
45066;DHT22;30830;53.704;10.004;2023-10-13T14:08:53;18.90;99.90
45066;DHT22;30830;53.704;10.004;2023-10-13T14:11:23;18.90;99.90
45066;DHT22;30830;53.704;10.004;2023-10-13T14:14:08;18.90;99.90
45066;DHT22;30830;53.704;10.004;2023-10-13T14:16:38;18.90;99.90
45066;DHT22;30830;53.704;10.004;2023-10-13T14:19:13;18.90;99.90
45066;DHT22;30830;53.704;10.004;2023-10-13T14:21:44;18.80;99.90
45066;DHT22;30830;53.704;10.004;2023-10-13T14:24:10;18.80;99.90
45066;DHT22;30830;53.704;10.004;2023-10-13T14:26:39;18.80;99.90
45066;DHT22;30830;53.704;10.004;2023-10-13T14:29:08;18.80;99.90
45066;DHT22;30830;53.704;10.004;2023-10-13T14:31:35;18.80;99.90
45066;DHT22;30830;53.704;10.004;2023-10-13T14:34:05;18.70;99.90
45066;DHT22;30830;53.704;10.004;2023-10-13T14:36:32;18.70;99.90
45066;DHT22;30830;53.704;10.004;2023-10-13T14:39:02;18.70;99.90
45066;DHT22;30830;53.704;10.004;2023-10-13T14:41:27;18.70;99.90
45066;DHT22;30830;53.704;10.004;2023-10-13T14:43:53;18.60;99.90
45066;DHT22;30830;53.704;10.004;2023-10-13T14:46:22;18.60;99.90
45066;DHT22;30830;53.704;10.004;2023-10-13T14:48:53;18.60;99.90
45066;DHT22;30830;53.704;10.004;2023-10-13T14:51:19;18.60;99.90
45066;DHT22;30830;53.704;10.004;2023-10-13T14:53:45;18.70;99.90
45066;DHT22;30830;53.704;10.004;2023-10-13T14:56:15;18.70;99.90
45066;DHT22;30830;53.704;10.004;2023-10-13T14:58:42;18.60;99.90
45066;DHT22;30830;53.704;10.004;2023-10-13T15:01:16;18.60;99.90
45066;DHT22;30830;53.704;10.004;2023-10-13T15:03:47;18.60;99.90
45066;DHT22;30830;53.704;10.004;2023-10-13T15:06:20;18.60;99.90
45066;DHT22;30830;53.704;10.004;2023-10-13T15:08:47;18.50;99.90
45066;DHT22;30830;53.704;10.004;2023-10-13T15:11:13;18.50;99.90
45066;DHT22;30830;53.704;10.004;2023-10-13T15:13:42;18.50;99.90
45066;DHT22;30830;53.704;10.004;2023-10-13T15:16:16;18.50;99.90
45066;DHT22;30830;53.704;10.004;2023-10-13T15:18:47;18.50;99.90
45066;DHT22;30830;53.704;10.004;2023-10-13T15:21:22;18.50;99.90
45066;DHT22;30830;53.704;10.004;2023-10-13T15:23:54;18.50;99.90
45066;DHT22;30830;53.704;10.004;2023-10-13T15:26:27;18.50;99.90
45066;DHT22;30830;53.704;10.004;2023-10-13T15:28:54;18.60;99.90
45066;DHT22;30830;53.704;10.004;2023-10-13T15:31:24;18.60;99.90
45066;DHT22;30830;53.704;10.004;2023-10-13T15:33:59;18.70;99.90
45066;DHT22;30830;53.704;10.004;2023-10-13T15:36:26;18.70;99.90
45066;DHT22;30830;53.704;10.004;2023-10-13T15:38:52;18.70;99.90
45066;DHT22;30830;53.704;10.004;2023-10-13T15:41:22;18.70;99.90
45066;DHT22;30830;53.704;10.004;2023-10-13T15:43:48;18.70;99.90
45066;DHT22;30830;53.704;10.004;2023-10-13T15:46:26;18.70;99.90
45066;DHT22;30830;53.704;10.004;2023-10-13T15:48:53;18.70;99.90
45066;DHT22;30830;53.704;10.004;2023-10-13T15:51:19;18.70;99.90
45066;DHT22;30830;53.704;10.004;2023-10-13T15:53:45;18.80;99.90
45066;DHT22;30830;53.704;10.004;2023-10-13T15:56:17;18.80;99.90
45066;DHT22;30830;53.704;10.004;2023-10-13T15:58:46;18.80;99.90
45066;DHT22;30830;53.704;10.004;2023-10-13T16:01:13;18.90;99.90
45066;DHT22;30830;53.704;10.004;2023-10-13T16:03:43;18.90;99.90
45066;DHT22;30830;53.704;10.004;2023-10-13T16:06:10;18.90;99.90
45066;DHT22;30830;53.704;10.004;2023-10-13T16:08:39;18.80;99.90
45066;DHT22;30830;53.704;10.004;2023-10-13T16:11:09;18.90;99.90